Mid Delta Regional Airport
KGLH : rendu visible

Aérodrome :











RETROUVEZ-NOUS SUR...

 
LOGIN :

S'inscrire | Disclaimer

   EN    FR    IT 

 









Légende :    VFR   VFR Marginal   IFR   IFR Intensif   IFR Très Intensif
Visi : 
Plafond : 
>= 8 km
>= 3000ft
5 à 8 km
1000 à 3000 ft
1500m à 5 km
500 à 1000 ft
800 à 1500m
200 à 500 ft
< 800m
< 200 ft
Symboles :   Orages  Brouillard  Fortes neiges  Fortes précipitations  Vent > 20 kt







- Altitude de l'aérodrome : 131 ft
- Code IATA : GLH


KGLH - Mid Delta Regional

DERNIER METAR :
  • 151153Z 00000KT 9SM CLR 23/21 A3009 RMK AO2 SLP193 T02280206 10239 20222 50001 $

METARs EXPIRÉS :
  • 151053Z AUTO 00000KT 9SM CLR 22/21 A3009 RMK AO2 SLP193 T02220206 $
  • 150953Z AUTO 00000KT 10SM CLR 23/21 A3008 RMK AO2 SLP191 T02280211 $

TAF KGLH
Valide du 15 à 12h jusqu'au 16 à 12h UTC


151126Z 1512/1612 00000KT P6SM SKC
FM151400 07004KT P6SM SKC
Pas de NOTAMs connus pour ce terrain.



MET'MAP, la Météo Aéronautique d'un coup d'oeil ! - Copyright ORBIFLY Décembre 2007 - Disclaimer

ORBIFLY MET'MAP TEAM :

Programmation & Développement : Alexandra Zaïnal
Conception & Développement : Baudouin d'Aumeries
Co-Programmation & Développement : Marc-Olivier Méhu
Soutien technique & logistique : Manuel Goepfert

Contact : metmap@orbifly.com




SOURCES & CREDITS :

   NOAA       Earth
Advisory